Time;durP1;ratioP1;P1;durP2;ratioP2;P2;SDS_P1;SDS_P2;PMS_P1;PMS_P2;Temp;Humidity;BMP_temperature;BMP_pressure;BME280_temperature;BME280_humidity;BME280_pressure;Samples;Min_cycle;Max_cycle;Signal;HPM_P1;HPM_P2
2023/07/02 00:00:06;;;;;;;2.83;2.63;;;;;;;19.56;71.47;98056.13;5136590;27;40468;-80
2023/07/02 00:02:37;;;;;;;2.70;2.50;;;;;;;19.66;71.56;98075.56;5136810;27;41677;-80
2023/07/02 00:05:05;;;;;;;2.83;2.63;;;;;;;19.59;71.86;98071.91;5136706;27;42726;-80
2023/07/02 00:07:34;;;;;;;2.93;2.67;;;;;;;19.56;72.39;98082.97;5136570;27;43205;-81
2023/07/02 00:10:02;;;;;;;2.90;2.70;;;;;;;19.53;72.34;98072.59;5136254;27;40886;-81
2023/07/02 00:12:31;;;;;;;3.33;2.67;;;;;;;19.48;72.63;98079.44;5119381;27;41106;-81
2023/07/02 00:14:59;;;;;;;3.37;3.07;;;;;;;19.39;72.79;98073.25;5136364;27;42719;-82
2023/07/02 00:17:27;;;;;;;3.20;2.90;;;;;;;19.29;72.82;98069.91;5136528;27;42391;-82
2023/07/02 00:19:54;;;;;;;2.87;2.67;;;;;;;19.42;72.77;98085.50;5136296;27;40966;-82
2023/07/02 00:22:22;;;;;;;2.80;2.60;;;;;;;19.33;72.59;98076.63;5119343;27;40637;-82
2023/07/02 00:24:51;;;;;;;3.30;2.70;;;;;;;19.43;73.03;98096.06;5118885;27;42957;-81
2023/07/02 00:27:19;;;;;;;2.90;2.70;;;;;;;19.41;72.68;98105.31;5119386;27;41055;-81
2023/07/02 00:29:48;;;;;;;2.50;2.30;;;;;;;19.38;73.13;98093.06;5136333;27;41008;-82
2023/07/02 00:32:15;;;;;;;3.13;2.80;;;;;;;19.27;73.69;98082.69;5119241;27;40657;-83
2023/07/02 00:34:43;;;;;;;4.23;3.20;;;;;;;19.37;73.82;98094.06;5119283;27;41858;-81
2023/07/02 00:37:11;;;;;;;2.90;2.70;;;;;;;19.36;73.53;98106.66;5119087;27;42381;-82
2023/07/02 00:39:39;;;;;;;3.57;2.70;;;;;;;19.32;74.10;98097.25;5136250;27;40876;-81
2023/07/02 00:42:08;;;;;;;2.87;2.67;;;;;;;19.06;73.94;98053.66;5136516;27;41974;-82
2023/07/02 00:44:40;;;;;;;3.00;2.73;;;;;;;19.44;73.75;98110.31;5118986;27;41808;-82
2023/07/02 00:47:10;;;;;;;3.27;2.97;;;;;;;19.48;73.90;98104.47;5118992;27;40974;-81
2023/07/02 00:49:38;;;;;;;3.00;2.80;;;;;;;19.43;73.20;98092.53;5136068;27;40868;-81
2023/07/02 00:52:06;;;;;;;3.37;2.97;;;;;;;19.57;73.49;98106.16;5119030;27;40714;-81
2023/07/02 00:54:35;;;;;;;3.10;2.90;;;;;;;19.58;72.88;98102.44;5135528;27;42669;-81
2023/07/02 00:57:05;;;;;;;3.13;2.83;;;;;;;19.59;73.26;98098.75;5136233;27;43108;-81
2023/07/02 00:59:34;;;;;;;2.87;2.67;;;;;;;19.56;72.86;98092.88;5135609;27;39723;-82
2023/07/02 01:02:04;;;;;;;3.37;3.07;;;;;;;19.62;72.89;98103.81;5118503;27;40654;-81
2023/07/02 01:04:34;;;;;;;2.83;2.63;;;;;;;19.53;72.55;98099.47;5153895;27;42690;-82
2023/07/02 01:07:02;;;;;;;3.17;2.70;;;;;;;19.52;72.84;98113.91;5118573;27;42285;-81
2023/07/02 01:09:30;;;;;;;3.00;2.80;;;;;;;19.37;72.94;98102.13;5118428;27;41022;-81
2023/07/02 01:12:01;;;;;;;4.93;3.07;;;;;;;19.29;73.26;98102.13;5118380;27;40887;-79
2023/07/02 01:14:34;;;;;;;2.97;2.67;;;;;;;19.20;72.97;98095.09;5132436;27;42562;-82
2023/07/02 01:17:04;;;;;;;2.80;2.60;;;;;;;19.17;73.23;98092.72;5118464;27;41276;-81
2023/07/02 01:19:43;;;;;;;3.70;2.50;;;;;;;19.25;73.17;98111.53;5153901;27;40956;-81
2023/07/02 01:22:12;;;;;;;3.43;3.00;;;;;;;19.27;72.95;98115.75;5118781;27;41431;-81
2023/07/02 01:24:40;;;;;;;2.60;2.40;;;;;;;19.09;72.57;98074.78;5135321;27;42787;-81
2023/07/02 01:27:10;;;;;;;3.00;2.70;;;;;;;19.28;72.13;98105.84;5135530;27;42548;-82
2023/07/02 01:29:37;;;;;;;2.77;2.57;;;;;;;19.23;71.90;98090.22;5118061;27;40824;-82
2023/07/02 01:32:06;;;;;;;3.10;2.60;;;;;;;19.33;72.16;98111.53;5135539;27;42518;-81
2023/07/02 01:34:34;;;;;;;3.10;2.87;;;;;;;19.30;71.81;98114.53;5118143;27;41582;-80
2023/07/02 01:37:04;;;;;;;3.00;2.80;;;;;;;19.27;72.12;98109.53;5117923;27;41507;-81
2023/07/02 01:39:33;;;;;;;2.60;2.40;;;;;;;19.26;71.86;98118.59;5135193;27;40194;-81
2023/07/02 01:42:10;;;;;;;2.80;2.60;;;;;;;19.27;71.88;98109.53;5118153;27;40622;-82
2023/07/02 01:44:38;;;;;;;2.70;2.50;;;;;;;19.13;71.83;98096.78;5132213;27;42795;-82
2023/07/02 01:47:07;;;;;;;3.00;2.80;;;;;;;19.20;71.57;98113.88;5135443;27;43303;-81
2023/07/02 01:49:34;;;;;;;3.73;3.40;;;;;;;18.92;71.79;98084.69;5135196;27;40778;-81
2023/07/02 01:52:04;;;;;;;3.10;2.80;;;;;;;19.02;71.78;98124.78;5118216;27;40569;-80
2023/07/02 01:54:33;;;;;;;2.80;2.60;;;;;;;18.89;71.83;98111.88;5134604;27;41680;-81
2023/07/02 01:57:01;;;;;;;3.13;2.73;;;;;;;18.94;72.32;98125.59;5135123;27;42509;-80
2023/07/02 01:59:30;;;;;;;3.63;2.87;;;;;;;18.88;72.58;98126.28;5134893;27;41417;-82
2023/07/02 02:01:57;;;;;;;2.47;2.27;;;;;;;18.83;72.21;98139.34;5117862;27;40750;-81
2023/07/02 02:04:25;;;;;;;2.63;2.33;;;;;;;18.79;72.30;98137.97;5133335;27;41832;-81
2023/07/02 02:06:54;;;;;;;2.57;2.37;;;;;;;18.76;72.43;98146.38;5134873;27;43186;-82
2023/07/02 02:09:23;;;;;;;2.83;2.53;;;;;;;18.69;72.24;98148.03;5118005;27;40044;-81
2023/07/02 02:11:52;;;;;;;3.87;2.67;;;;;;;18.67;72.44;98154.59;5117664;27;40657;-83
2023/07/02 02:14:21;;;;;;;4.07;2.57;;;;;;;18.58;72.70;98153.69;5117469;27;42750;-81
2023/07/02 02:16:49;;;;;;;2.67;2.47;;;;;;;18.56;72.51;98147.63;5134653;27;42384;-80
2023/07/02 02:19:17;;;;;;;2.70;2.17;;;;;;;18.52;72.46;98157.03;5117107;27;40166;-80
2023/07/02 02:21:45;;;;;;;2.77;2.57;;;;;;;18.45;72.52;98154.13;5117239;27;41694;-82
2023/07/02 02:24:14;;;;;;;2.57;2.37;;;;;;;18.42;72.38;98157.13;5134473;27;42172;-82
2023/07/02 02:26:43;;;;;;;2.60;2.40;;;;;;;18.26;72.25;98135.66;5152784;27;42330;-81
2023/07/02 02:29:11;;;;;;;2.83;2.43;;;;;;;18.35;71.61;98171.34;5134376;27;41117;-81
2023/07/02 02:31:39;;;;;;;2.73;2.27;;;;;;;18.31;71.46;98165.47;5117204;27;40757;-82
2023/07/02 02:34:07;;;;;;;3.67;2.10;;;;;;;18.28;71.28;98155.09;5134743;27;42785;-81
2023/07/02 02:36:35;;;;;;;2.47;2.27;;;;;;;18.24;71.11;98157.25;5117232;27;42373;-81
2023/07/02 02:39:03;;;;;;;2.50;2.00;;;;;;;18.22;71.16;98161.09;5134704;27;40889;-82
2023/07/02 02:41:32;;;;;;;2.10;1.90;;;;;;;18.20;71.20;98179.16;5134335;27;41929;-81
2023/07/02 02:44:02;;;;;;;3.00;2.07;;;;;;;18.15;71.12;98170.78;5117236;27;41866;-82
2023/07/02 02:46:30;;;;;;;2.30;1.90;;;;;;;18.11;71.02;98174.75;5116969;27;41483;-81
2023/07/02 02:48:58;;;;;;;2.67;2.00;;;;;;;18.07;70.98;98174.22;5117151;27;39787;-81
2023/07/02 02:51:27;;;;;;;2.57;2.10;;;;;;;18.00;70.69;98162.50;5116835;27;40438;-81
2023/07/02 02:53:55;;;;;;;2.57;1.97;;;;;;;17.82;70.93;98146.47;5116822;27;42148;-81
2023/07/02 02:56:22;;;;;;;2.50;2.30;;;;;;;17.91;71.23;98176.84;5117151;27;42529;-81
2023/07/02 02:58:50;;;;;;;2.27;2.17;;;;;;;17.90;71.18;98176.00;5116807;27;40123;-81
2023/07/02 03:01:19;;;;;;;3.23;2.50;;;;;;;17.87;70.92;98184.34;5134160;27;42436;-81
2023/07/02 03:03:47;;;;;;;2.50;1.97;;;;;;;17.82;71.05;98183.13;5116700;27;42742;-80
2023/07/02 03:06:15;;;;;;;2.43;2.20;;;;;;;17.79;71.22;98175.44;5152218;27;42255;-81
2023/07/02 03:08:43;;;;;;;2.30;2.10;;;;;;;17.76;70.88;98181.94;5117016;27;40805;-81
2023/07/02 03:11:10;;;;;;;2.07;1.90;;;;;;;17.73;70.71;98176.03;5116724;27;40661;-82
2023/07/02 03:13:38;;;;;;;4.00;2.00;;;;;;;17.70;70.88;98181.72;5116653;27;41797;-82
2023/07/02 03:16:06;;;;;;;2.37;2.00;;;;;;;17.66;70.91;98185.72;5135097;27;42241;-82
2023/07/02 03:18:36;;;;;;;2.43;1.97;;;;;;;17.47;70.74;98168.81;5120594;27;39581;-81
2023/07/02 03:21:04;;;;;;;2.47;2.07;;;;;;;17.58;70.76;98189.97;5120364;27;40866;-80
2023/07/02 03:23:31;;;;;;;2.43;2.23;;;;;;;17.53;70.83;98181.59;5138279;27;43799;-82
2023/07/02 03:25:59;;;;;;;2.57;2.03;;;;;;;17.46;70.98;98174.31;5137659;27;42734;-81
2023/07/02 03:28:27;;;;;;;2.90;2.10;;;;;;;17.46;70.52;98191.22;5137599;27;39922;-82
2023/07/02 03:30:54;;;;;;;4.10;2.37;;;;;;;17.34;70.47;98176.41;5137620;27;41681;-81
2023/07/02 03:33:22;;;;;;;3.43;2.23;;;;;;;17.43;70.34;98196.06;5137531;27;42630;-82
2023/07/02 03:35:51;;;;;;;2.33;1.80;;;;;;;17.40;70.33;98191.84;5155676;27;42281;-81
2023/07/02 03:38:19;;;;;;;3.33;1.93;;;;;;;17.41;70.36;98190.03;5137405;27;40361;-82
2023/07/02 03:40:47;;;;;;;2.33;2.13;;;;;;;17.39;70.04;98192.84;5119878;27;40359;-81
2023/07/02 03:43:14;;;;;;;2.90;2.20;;;;;;;17.28;70.08;98171.69;5137095;27;41812;-82
2023/07/02 03:45:42;;;;;;;3.07;1.90;;;;;;;17.39;70.26;98194.69;5119763;27;41464;-82
2023/07/02 03:48:10;;;;;;;3.40;2.03;;;;;;;17.38;70.20;98198.34;5137266;27;41103;-82
2023/07/02 03:50:38;;;;;;;2.97;2.10;;;;;;;17.33;70.24;98185.41;5136723;27;42428;-81
2023/07/02 03:53:07;;;;;;;3.50;2.80;;;;;;;17.37;70.17;98192.16;5119685;27;41575;-82
2023/07/02 03:55:35;;;;;;;3.87;1.87;;;;;;;17.37;70.38;98192.16;5136503;27;41568;-80
2023/07/02 03:58:03;;;;;;;2.40;2.00;;;;;;;17.32;70.71;98188.25;5119928;27;39813;-81
2023/07/02 04:00:30;;;;;;;3.27;2.00;;;;;;;17.28;70.66;98179.72;5119531;27;40817;-81
2023/07/02 04:02:59;;;;;;;1.80;1.70;;;;;;;17.38;70.53;98199.19;5155041;27;43575;-82
2023/07/02 04:05:27;;;;;;;2.13;1.80;;;;;;;17.41;70.36;98198.88;5119797;27;41115;-81
2023/07/02 04:07:55;;;;;;;2.00;1.87;;;;;;;17.40;70.05;98207.91;5136670;27;39975;-82
2023/07/02 04:10:25;;;;;;;2.40;2.20;;;;;;;17.46;70.02;98207.28;5155145;27;41860;-82
2023/07/02 04:12:52;;;;;;;2.53;2.00;;;;;;;17.51;69.90;98210.34;5136665;27;41726;-82
2023/07/02 04:15:20;;;;;;;2.50;2.10;;;;;;;17.53;69.52;98218.22;5119235;27;41404;-81
2023/07/02 04:17:48;;;;;;;2.67;2.30;;;;;;;17.58;69.40;98227.44;5119182;27;40681;-82
2023/07/02 04:20:15;;;;;;;3.50;2.10;;;;;;;17.64;68.96;98231.41;5119124;27;42099;-82
2023/07/02 04:22:43;;;;;;;2.60;2.07;;;;;;;17.34;68.85;98180.91;5136574;27;43720;-82
2023/07/02 04:25:11;;;;;;;2.83;1.90;;;;;;;17.74;68.54;98240.16;5136256;27;41336;-82
2023/07/02 04:27:40;;;;;;;3.73;2.40;;;;;;;17.77;67.94;98242.53;5153950;27;40855;-82
2023/07/02 04:30:09;;;;;;;3.30;2.60;;;;;;;17.83;68.16;98238.38;5136183;27;42483;-81
2023/07/02 04:32:39;;;;;;;3.93;2.30;;;;;;;17.91;67.93;98247.34;5136212;27;42726;-82
2023/07/02 04:35:07;;;;;;;3.40;2.13;;;;;;;17.85;67.27;98229.19;5136166;27;42650;-82
2023/07/02 04:37:35;;;;;;;3.53;2.73;;;;;;;18.02;67.39;98250.75;5136511;27;40843;-82
2023/07/02 04:40:06;;;;;;;3.73;2.70;;;;;;;18.07;67.22;98254.63;5135850;27;40604;-81
2023/07/02 04:42:37;;;;;;;3.87;2.67;;;;;;;17.97;66.44;98248.53;5119222;27;42764;-83
2023/07/02 04:45:08;;;;;;;5.67;3.67;;;;;;;18.02;65.88;98270.34;5118623;27;41244;-81
2023/07/02 04:47:36;;;;;;;4.93;3.23;;;;;;;18.08;65.53;98277.75;5118973;27;39779;-82
2023/07/02 04:50:05;;;;;;;5.40;3.30;;;;;;;18.17;65.21;98281.34;5154831;27;41820;-81
2023/07/02 04:52:33;;;;;;;4.60;3.23;;;;;;;18.24;64.91;98280.53;5118526;27;43186;-82
2023/07/02 04:55:01;;;;;;;6.20;3.50;;;;;;;18.34;64.24;98285.78;5135440;27;42265;-80
2023/07/02 04:57:29;;;;;;;4.57;3.30;;;;;;;18.27;63.78;98266.84;5118819;27;40010;-82
2023/07/02 04:59:57;;;;;;;5.33;3.70;;;;;;;18.53;63.57;98307.03;5135824;27;41594;-81
2023/07/02 05:02:26;;;;;;;5.87;3.90;;;;;;;18.73;62.80;98304.97;5118961;27;41627;-81
2023/07/02 05:04:54;;;;;;;6.93;4.23;;;;;;;18.93;62.15;98306.38;5118209;27;41981;-81
2023/07/02 05:07:21;;;;;;;6.73;3.60;;;;;;;19.07;61.27;98307.63;5135821;27;41894;-82
2023/07/02 05:09:51;;;;;;;6.50;4.27;;;;;;;19.26;60.21;98309.19;5118329;27;40588;-80
2023/07/02 05:12:19;;;;;;;6.07;4.33;;;;;;;19.37;59.52;98303.50;5135789;27;44414;-81
2023/07/02 05:14:47;;;;;;;5.17;3.90;;;;;;;19.46;59.18;98307.88;5118123;27;41284;-82
2023/07/02 05:17:15;;;;;;;5.50;4.70;;;;;;;19.59;57.61;98323.56;5135190;27;40436;-81
2023/07/02 05:19:44;;;;;;;6.77;4.43;;;;;;;19.59;56.69;98319.03;5118083;27;42104;-81
2023/07/02 05:22:12;;;;;;;5.77;4.03;;;;;;;19.66;56.22;98330.75;5153688;27;43557;-79
2023/07/02 05:24:40;;;;;;;5.83;3.93;;;;;;;19.60;55.81;98322.53;5117925;27;42353;-80
2023/07/02 05:27:08;;;;;;;6.93;5.57;;;;;;;19.63;55.95;98331.13;5135291;27;40751;-81
2023/07/02 05:29:36;;;;;;;7.60;4.63;;;;;;;19.63;55.92;98317.69;5135141;27;41723;-82
2023/07/02 05:32:04;;;;;;;7.67;4.73;;;;;;;19.65;55.59;98322.91;5153743;27;42842;-79
2023/07/02 05:34:32;;;;;;;8.60;4.67;;;;;;;19.65;55.30;98326.44;5117923;27;41197;-80
2023/07/02 05:37:01;;;;;;;6.37;4.57;;;;;;;19.70;55.50;98329.44;5135359;27;40665;-81
2023/07/02 05:39:29;;;;;;;7.43;5.03;;;;;;;19.77;55.59;98334.16;5117702;27;40523;-82
2023/07/02 05:41:57;;;;;;;6.83;5.00;;;;;;;19.83;55.37;98331.63;5117714;27;42725;-80
2023/07/02 05:44:25;;;;;;;7.50;4.90;;;;;;;19.89;55.30;98324.75;5134885;27;41400;-81
2023/07/02 05:46:53;;;;;;;7.63;5.30;;;;;;;19.91;54.42;98334.31;5153362;27;41908;-79
2023/07/02 05:49:21;;;;;;;11.40;6.07;;;;;;;19.93;53.63;98343.06;5135060;27;42676;-80
2023/07/02 05:51:49;;;;;;;9.57;6.43;;;;;;;19.97;53.80;98343.56;5153101;27;44034;-80
2023/07/02 05:54:18;;;;;;;7.80;5.63;;;;;;;19.99;53.77;98344.25;5117618;27;41238;-81
2023/07/02 05:56:46;;;;;;;8.33;6.37;;;;;;;20.07;53.67;98346.94;5117839;27;39978;-80
2023/07/02 05:59:17;;;;;;;9.90;6.10;;;;;;;20.12;53.44;98341.06;5118123;27;40538;-81
2023/07/02 06:01:45;;;;;;;7.73;5.57;;;;;;;20.26;53.54;98354.66;5117577;27;42023;-81
2023/07/02 06:04:13;;;;;;;8.83;6.07;;;;;;;20.12;53.44;98331.16;5152678;27;43284;-81
2023/07/02 06:06:41;;;;;;;8.00;5.57;;;;;;;20.34;53.73;98351.97;5134636;27;40887;-80
2023/07/02 06:09:08;;;;;;;8.17;6.43;;;;;;;20.48;53.12;98373.84;5117753;27;40543;-81
2023/07/02 06:11:38;;;;;;;8.10;6.33;;;;;;;20.45;52.96;98361.56;5153160;27;43608;-80
2023/07/02 06:14:05;;;;;;;7.10;4.90;;;;;;;20.61;52.89;98376.84;5134521;27;41424;-82
2023/07/02 06:16:33;;;;;;;6.17;5.47;;;;;;;20.73;52.23;98378.16;5134442;27;41023;-82
2023/07/02 06:19:01;;;;;;;9.07;5.70;;;;;;;20.91;52.07;98386.84;5153189;27;41839;-81
2023/07/02 06:21:30;;;;;;;7.90;5.50;;;;;;;20.95;51.21;98382.81;5117092;27;41600;-81
2023/07/02 06:23:59;;;;;;;10.83;5.43;;;;;;;21.17;50.66;98417.06;5117085;27;42169;-81
2023/07/02 06:26:26;;;;;;;8.23;5.90;;;;;;;21.29;50.18;98405.94;5152720;27;41032;-80
2023/07/02 06:28:56;;;;;;;8.60;5.87;;;;;;;21.34;50.07;98404.41;5134555;27;41785;-81
2023/07/02 06:31:24;;;;;;;10.70;5.93;;;;;;;21.33;49.76;98385.72;5116875;27;41745;-81
2023/07/02 06:33:52;;;;;;;9.57;5.67;;;;;;;21.57;49.43;98403.63;5117112;27;41670;-81
2023/07/02 06:36:20;;;;;;;7.57;5.97;;;;;;;21.74;49.36;98407.91;5116775;27;39836;-81
2023/07/02 06:38:48;;;;;;;8.30;6.33;;;;;;;21.91;48.83;98419.41;5133934;27;41731;-81
2023/07/02 06:41:16;;;;;;;7.07;5.37;;;;;;;21.96;48.81;98398.16;5116877;27;42010;-80
2023/07/02 06:43:44;;;;;;;8.40;5.90;;;;;;;22.30;48.00;98417.50;5116719;27;40928;-80
2023/07/02 06:46:13;;;;;;;7.77;6.03;;;;;;;22.70;47.53;98415.47;5134223;27;41824;-81
2023/07/02 06:48:41;;;;;;;10.77;6.10;;;;;;;22.92;47.01;98425.41;5116931;27;40696;-78
2023/07/02 06:51:08;;;;;;;7.87;6.00;;;;;;;23.10;46.68;98420.50;5135279;27;42710;-82
2023/07/02 06:53:37;;;;;;;9.00;6.30;;;;;;;23.13;46.33;98414.69;5120769;27;41184;-80
2023/07/02 06:56:05;;;;;;;9.20;6.00;;;;;;;23.29;46.03;98430.72;5120156;27;39600;-81
2023/07/02 06:58:32;;;;;;;10.17;6.47;;;;;;;23.20;46.30;98423.75;5137680;27;40363;-82
2023/07/02 07:01:00;;;;;;;9.37;6.47;;;;;;;23.44;46.22;98427.16;5120241;27;44492;-81
2023/07/02 07:03:30;;;;;;;9.57;6.43;;;;;;;23.65;45.92;98424.56;5120074;27;42188;-80
2023/07/02 07:05:57;;;;;;;7.47;6.10;;;;;;;23.73;45.48;98421.75;5137278;27;41516;-81
2023/07/02 07:08:25;;;;;;;8.07;6.73;;;;;;;23.68;45.43;98424.19;5137546;27;41659;-82
2023/07/02 07:10:52;;;;;;;9.03;6.43;;;;;;;23.86;45.15;98421.06;5137380;27;42612;-81
2023/07/02 07:13:23;;;;;;;9.30;6.37;;;;;;;24.12;44.50;98431.31;5137443;27;41338;-79
2023/07/02 07:15:50;;;;;;;7.37;6.27;;;;;;;24.38;44.59;98428.91;5137442;27;40942;-82
2023/07/02 07:18:19;;;;;;;8.97;6.60;;;;;;;24.31;43.97;98428.88;5137266;27;42742;-81
2023/07/02 07:20:48;;;;;;;10.07;5.97;;;;;;;24.13;44.46;98428.44;5137217;27;41730;-81
2023/07/02 07:23:17;;;;;;;7.60;6.10;;;;;;;23.81;44.65;98408.13;5137237;27;43110;-81
2023/07/02 07:25:44;;;;;;;7.80;6.33;;;;;;;23.79;44.66;98404.75;5137204;27;41090;-80
2023/07/02 07:28:15;;;;;;;7.10;6.27;;;;;;;23.77;45.16;98385.19;5137391;27;42821;-80
2023/07/02 07:30:43;;;;;;;7.77;6.20;;;;;;;24.10;44.94;98414.47;5119997;27;41935;-80
2023/07/02 07:33:11;;;;;;;9.37;6.80;;;;;;;24.40;44.85;98410.63;5155874;27;43106;-80
2023/07/02 07:35:42;;;;;;;9.07;6.80;;;;;;;24.32;44.33;98399.94;5119619;27;40849;-81
2023/07/02 07:38:11;;;;;;;8.30;6.53;;;;;;;24.46;44.08;98412.56;5137176;27;41038;-80
2023/07/02 07:40:38;;;;;;;10.07;6.60;;;;;;;24.61;43.66;98416.00;5155374;27;42707;-81
2023/07/02 07:43:06;;;;;;;10.50;7.23;;;;;;;24.95;43.06;98422.56;5119563;27;41343;-81
2023/07/02 07:45:35;;;;;;;9.77;6.73;;;;;;;25.20;42.74;98431.91;5136923;27;42001;-80
2023/07/02 07:48:02;;;;;;;10.67;7.23;;;;;;;25.58;41.54;98401.63;5136865;27;42037;-79
2023/07/02 07:50:30;;;;;;;9.47;6.73;;;;;;;26.86;39.89;98444.94;5136890;27;43690;-81
2023/07/02 07:52:57;;;;;;;9.80;6.43;;;;;;;27.59;38.26;98434.81;5119420;27;41262;-81
2023/07/02 07:55:27;;;;;;;10.13;6.47;;;;;;;28.31;37.52;98457.34;5136279;27;41036;-81
2023/07/02 07:57:55;;;;;;;9.57;6.80;;;;;;;29.49;36.19;98464.56;5155034;27;41752;-79
2023/07/02 08:00:24;;;;;;;7.60;6.57;;;;;;;30.97;33.83;98484.00;5154842;27;42780;-80
2023/07/02 08:02:55;;;;;;;8.70;6.77;;;;;;;32.02;31.95;98489.44;5117495;27;41559;-78
2023/07/02 08:05:23;;;;;;;10.63;7.43;;;;;;;32.23;31.25;98498.97;5119442;27;40856;-78
2023/07/02 08:07:50;;;;;;;9.47;7.23;;;;;;;33.72;29.70;98496.59;5119075;27;41027;-79
2023/07/02 08:10:19;;;;;;;9.20;6.67;;;;;;;35.16;27.54;98515.28;5118894;27;42858;-79
2023/07/02 08:12:49;;;;;;;9.00;7.80;;;;;;;36.45;26.12;98513.91;5136308;27;42152;-78
2023/07/02 08:15:16;;;;;;;7.68;6.97;;;;;;;37.63;25.46;98519.25;5136076;27;41904;-80
2023/07/02 08:17:44;;;;;;;9.00;7.00;;;;;;;37.61;25.07;98509.56;5136277;27;41683;-80
2023/07/02 08:20:12;;;;;;;10.47;7.13;;;;;;;36.48;25.68;98518.84;5118940;27;41896;-80
2023/07/02 08:22:41;;;;;;;8.73;7.82;;;;;;;36.59;25.65;98526.06;5118718;27;40911;-83
2023/07/02 08:25:09;;;;;;;7.90;7.10;;;;;;;36.51;25.34;98510.03;5136011;27;40823;-78
2023/07/02 08:27:36;;;;;;;9.80;7.70;;;;;;;35.56;26.28;98511.22;5136351;27;40628;-79
2023/07/02 08:30:07;;;;;;;7.80;7.00;;;;;;;35.40;26.13;98514.94;5135816;27;43870;-80
2023/07/02 08:32:35;;;;;;;8.30;7.50;;;;;;;35.09;26.33;98483.59;5135588;27;41580;-79
2023/07/02 08:35:02;;;;;;;10.70;7.50;;;;;;;34.81;26.60;98503.97;5118559;27;40766;-79
2023/07/02 08:37:30;;;;;;;9.63;7.97;;;;;;;33.92;27.43;98517.19;5135685;27;42740;-81
2023/07/02 08:39:58;;;;;;;9.60;7.93;;;;;;;33.07;28.25;98510.94;5118427;27;41731;-78
2023/07/02 08:42:29;;;;;;;9.37;7.87;;;;;;;32.18;28.98;98515.28;5135811;27;43229;-78
2023/07/02 08:44:58;;;;;;;9.63;8.10;;;;;;;31.39;30.11;98506.69;5135808;27;40134;-76
2023/07/02 08:47:29;;;;;;;11.40;8.63;;;;;;;30.52;30.54;98493.75;5135756;27;42388;-79
2023/07/02 08:49:57;;;;;;;11.23;8.80;;;;;;;30.03;31.27;98498.41;5135311;27;41645;-79
2023/07/02 08:52:25;;;;;;;11.73;8.13;;;;;;;29.62;32.12;98491.69;5134216;27;41712;-77
2023/07/02 08:54:54;;;;;;;9.93;8.13;;;;;;;29.21;32.88;98488.72;5134782;27;39932;-80
2023/07/02 08:57:22;;;;;;;10.07;8.13;;;;;;;29.27;33.24;98487.84;5117865;27;41828;-78
2023/07/02 08:59:51;;;;;;;10.33;8.27;;;;;;;29.73;32.13;98497.47;5135101;27;42629;-78
2023/07/02 09:02:19;;;;;;;9.50;7.57;;;;;;;29.78;32.54;98497.63;5117554;27;41316;-78
2023/07/02 09:04:48;;;;;;;10.40;8.03;;;;;;;29.91;32.03;98494.75;5153361;27;41080;-79
2023/07/02 09:07:15;;;;;;;9.77;6.97;;;;;;;30.34;31.53;98500.91;5134367;27;41792;-82
2023/07/02 09:09:47;;;;;;;10.33;8.00;;;;;;;30.60;30.95;98494.28;5134791;27;42714;-80
2023/07/02 09:12:25;;;;;;;10.70;7.87;;;;;;;30.96;30.49;98509.69;5117573;27;41563;-81
2023/07/02 09:14:58;;;;;;;11.57;7.73;;;;;;;31.26;30.04;98503.34;5152859;27;41687;-78
2023/07/02 09:17:30;;;;;;;9.27;7.13;;;;;;;31.42;30.62;98499.88;5117323;27;41193;-78
2023/07/02 09:20:02;;;;;;;10.10;7.30;;;;;;;31.55;30.21;98512.47;5134196;27;42694;-80
2023/07/02 09:22:30;;;;;;;7.97;6.80;;;;;;;31.73;30.07;98505.00;5117817;27;41231;-79
2023/07/02 09:24:59;;;;;;;10.30;7.30;;;;;;;32.17;29.37;98516.31;5134651;27;39964;-79
2023/07/02 09:27:38;;;;;;;9.63;7.97;;;;;;;31.96;29.78;98517.00;5134672;27;42042;-78
2023/07/02 09:30:12;;;;;;;11.10;7.03;;;;;;;31.38;29.01;98540.59;5133991;27;41783;-79
2023/07/02 09:32:40;;;;;;;7.93;6.47;;;;;;;30.70;29.79;98532.81;5117420;27;40956;-80
2023/07/02 09:35:09;;;;;;;7.70;6.90;;;;;;;30.61;30.24;98519.72;5116881;27;39950;-80
2023/07/02 09:37:37;;;;;;;9.80;6.80;;;;;;;30.38;30.10;98506.75;5116807;27;40658;-79
2023/07/02 09:40:09;;;;;;;7.87;6.73;;;;;;;31.46;29.00;98520.22;5134223;27;43674;-78
2023/07/02 09:42:40;;;;;;;6.47;5.70;;;;;;;32.09;28.40;98516.72;5134397;27;42575;-80
2023/07/02 09:45:10;;;;;;;8.13;6.17;;;;;;;31.71;28.94;98518.09;5134714;27;40790;-78
2023/07/02 09:47:44;;;;;;;7.00;6.17;;;;;;;31.72;29.14;98514.28;5134010;27;42643;-78
2023/07/02 09:50:15;;;;;;;7.43;6.40;;;;;;;33.21;27.45;98527.09;5132028;27;42923;-78
2023/07/02 09:52:45;;;;;;;8.07;6.67;;;;;;;33.15;27.23;98526.97;5133491;27;41125;-78
2023/07/02 09:55:13;;;;;;;7.00;6.30;;;;;;;33.48;26.86;98533.59;5134061;27;42454;-78
2023/07/02 09:57:41;;;;;;;8.67;6.50;;;;;;;32.71;27.89;98516.84;5133986;27;41980;-78
2023/07/02 10:00:10;;;;;;;8.73;6.83;;;;;;;32.01;29.08;98517.09;5116195;27;42752;-77
2023/07/02 10:02:39;;;;;;;9.40;6.50;;;;;;;31.17;29.14;98526.63;5116064;27;41499;-77
2023/07/02 10:05:07;;;;;;;8.67;6.80;;;;;;;30.46;30.27;98492.75;5116018;27;40154;-77
2023/07/02 10:07:36;;;;;;;7.73;6.83;;;;;;;30.85;30.50;98502.28;5133467;27;40683;-78
2023/07/02 10:10:06;;;;;;;7.63;6.63;;;;;;;30.48;30.58;98500.72;5133948;27;42445;-78
2023/07/02 10:12:34;;;;;;;8.60;6.47;;;;;;;30.75;30.32;98518.44;5116663;27;43586;-78
2023/07/02 10:15:02;;;;;;;7.23;6.53;;;;;;;31.23;30.19;98504.66;5116879;27;40121;-78
2023/07/02 10:17:32;;;;;;;8.07;6.83;;;;;;;31.50;29.01;98515.97;5133883;27;40749;-77
2023/07/02 10:20:04;;;;;;;6.77;6.07;;;;;;;31.36;29.53;98512.63;5133595;27;42757;-78
2023/07/02 10:22:45;;;;;;;7.93;5.67;;;;;;;31.13;28.83;98519.97;5148875;27;42457;-76
2023/07/02 10:25:12;;;;;;;8.23;5.97;;;;;;;31.05;29.82;98510.16;5132769;27;40358;-76
2023/07/02 10:27:41;;;;;;;8.87;6.17;;;;;;;31.01;28.46;98534.44;5133265;27;42840;-78
2023/07/02 10:30:11;;;;;;;6.60;5.90;;;;;;;31.28;28.72;98529.38;5133730;27;41967;-77
2023/07/02 10:32:39;;;;;;;7.43;5.80;;;;;;;31.63;28.57;98526.66;5133110;27;41455;-77
2023/07/02 10:35:15;;;;;;;7.17;5.90;;;;;;;31.61;28.04;98527.97;5116204;27;39710;-77
2023/07/02 10:37:43;;;;;;;8.10;5.77;;;;;;;31.14;28.67;98527.97;5116701;27;42064;-79
2023/07/02 10:40:14;;;;;;;7.63;6.43;;;;;;;30.82;28.33;98530.09;5131832;27;43700;-78
2023/07/02 10:42:48;;;;;;;6.73;6.03;;;;;;;30.56;28.17;98535.97;5130239;27;43212;-77
2023/07/02 10:45:17;;;;;;;7.00;5.50;;;;;;;30.73;28.74;98531.50;5115796;27;41096;-76
2023/07/02 10:47:45;;;;;;;7.73;6.33;;;;;;;30.80;28.37;98506.78;5151827;27;41579;-76
2023/07/02 10:50:18;;;;;;;8.13;6.87;;;;;;;30.86;28.23;98531.31;5150230;27;43704;-77
2023/07/02 10:52:45;;;;;;;6.90;6.20;;;;;;;30.85;28.25;98506.94;5150713;27;43276;-77
2023/07/02 10:55:19;;;;;;;8.07;6.20;;;;;;;31.38;27.72;98528.81;5150316;27;41663;-76
2023/07/02 10:57:48;;;;;;;7.57;6.17;;;;;;;31.50;27.47;98513.22;5147460;27;43220;-77
2023/07/02 11:00:16;;;;;;;7.90;6.50;;;;;;;31.75;27.24;98519.31;5132672;27;41811;-78
2023/07/02 11:02:44;;;;;;;8.00;6.67;;;;;;;31.76;27.30;98523.72;5143443;27;41332;-76
2023/07/02 11:05:13;;;;;;;8.60;6.90;;;;;;;31.65;26.73;98524.53;5132862;27;40796;-77
2023/07/02 11:07:41;;;;;;;6.77;6.17;;;;;;;31.82;27.22;98529.28;5150394;27;42652;-77
2023/07/02 11:10:11;;;;;;;8.10;6.83;;;;;;;31.65;27.54;98529.19;5150230;27;42814;-77
2023/07/02 11:12:40;;;;;;;8.83;7.13;;;;;;;31.42;27.67;98527.25;5150518;27;42941;-79
2023/07/02 11:15:08;;;;;;;8.40;6.97;;;;;;;31.80;27.60;98514.97;5145944;27;41876;-78
2023/07/02 11:17:36;;;;;;;8.63;7.20;;;;;;;31.85;27.35;98523.31;5115743;27;40710;-78
2023/07/02 11:20:05;;;;;;;8.67;7.17;;;;;;;32.00;27.16;98521.75;5132691;27;43428;-77
2023/07/02 11:22:33;;;;;;;8.57;7.67;;;;;;;32.09;27.59;98519.47;5131855;27;40858;-77
2023/07/02 11:25:10;;;;;;;8.07;6.70;;;;;;;32.15;26.97;98521.22;5131877;27;39947;-77
2023/07/02 11:27:38;;;;;;;7.73;6.80;;;;;;;32.03;26.93;98518.50;5147002;27;41616;-77
2023/07/02 11:30:08;;;;;;;8.70;6.97;;;;;;;31.86;27.31;98514.03;5132456;27;41741;-78
2023/07/02 11:32:49;;;;;;;8.03;6.57;;;;;;;31.64;27.31;98514.69;5151845;27;42898;-78
2023/07/02 11:35:17;;;;;;;8.77;7.30;;;;;;;31.33;27.30;98509.53;5142697;27;41706;-78
2023/07/02 11:37:45;;;;;;;12.27;7.73;;;;;;;31.04;27.06;98530.38;5153186;27;42701;-76